Aqs Eyr — LG7648 — position and weather

sailwx.info

Track history (hours):
 
Tides and Currents Weather Stations Pressure Air Temp Water Temp Dewpoint Dewpoint Depression Visibility Wind Speed Wind Dir Waves Ship Positions

Aqs Eyr

Last reported at 2018-Feb-21 06:41 UTC. Time now 2018-Feb-21 09:42 UTC.
Position N 70°34' E 023°38'.

Length 15 m.

MMSI: 257586800.

Date/timePositionNaut miles runAvg speedWind from/ knotsBaromVisibWave heightAir tempDewpointWater temp
2018-Feb-21 06:41N 70°34' E 023°38'2 8.4
2018-Feb-21 06:28N 70°36' E 023°35'3 0.2
2018-Feb-20 16:16N 70°38' E 023°37'1 3.3
2018-Feb-20 15:57N 70°38' E 023°34'2 3.9
2018-Feb-20 15:24N 70°36' E 023°34'1 0.1
2018-Feb-20 06:41N 70°36' E 023°35'2 8.7
2018-Feb-20 06:30N 70°38' E 023°36'3 4.8
2018-Feb-20 05:56N 70°40' E 023°41'0 0.0
2018-Feb-20 05:26N 70°40' E 023°41'0 0.0
2018-Feb-20 04:56N 70°40' E 023°41'0 0.0
2018-Feb-20 04:26N 70°40' E 023°41'0 0.0
2018-Feb-20 03:56N 70°40' E 023°41'0 0.0
2018-Feb-20 03:26N 70°40' E 023°41'0 0.0
2018-Feb-20 02:56N 70°40' E 023°41'0 0.0
2018-Feb-20 02:26N 70°40' E 023°41'0 0.0
2018-Feb-20 01:56N 70°40' E 023°41'0 0.0
2018-Feb-20 01:26N 70°40' E 023°41'0 0.0
2018-Feb-20 00:56N 70°40' E 023°41'0 0.0
2018-Feb-20 00:27N 70°40' E 023°41'0 0.0
2018-Feb-19 23:56N 70°40' E 023°41'0 0.0
2018-Feb-19 23:26N 70°40' E 023°41'0 0.0
2018-Feb-19 22:56N 70°40' E 023°41'0 0.0
2018-Feb-19 22:26N 70°40' E 023°41'0 0.0
2018-Feb-19 21:56N 70°40' E 023°41'0 0.0
2018-Feb-19 21:20N 70°40' E 023°41'0 0.0
2018-Feb-19 20:56N 70°40' E 023°41'0 0.0
2018-Feb-19 20:26N 70°40' E 023°41'0 0.0
2018-Feb-19 19:56N 70°40' E 023°41'0 0.0
2018-Feb-19 19:27N 70°40' E 023°41'0 0.0
2018-Feb-19 18:56N 70°40' E 023°41'0 0.0
2018-Feb-19 18:26N 70°40' E 023°41'0 0.0
2018-Feb-19 17:56N 70°40' E 023°41'0 0.0
2018-Feb-19 17:21N 70°40' E 023°41'1 2.7
2018-Feb-19 17:00N 70°40' E 023°38'2 2.5
2018-Feb-19 16:10N 70°38' E 023°36'1 0.1
2018-Feb-19 07:14N 70°37' E 023°36'2 6.6
2018-Feb-19 07:00N 70°38' E 023°38'1 1.5
2018-Feb-19 06:30N 70°39' E 023°37'2 3.3
2018-Feb-19 05:59N 70°40' E 023°40'0 0.0
2018-Feb-19 05:29N 70°40' E 023°40'0 0.0
2018-Feb-19 04:59N 70°40' E 023°40'0 0.0
2018-Feb-19 04:29N 70°40' E 023°40'0 0.0
2018-Feb-19 03:59N 70°40' E 023°40'0 0.0
2018-Feb-19 03:29N 70°40' E 023°40'0 0.0
2018-Feb-19 02:59N 70°40' E 023°40'0 0.0
2018-Feb-19 02:29N 70°40' E 023°40'0 0.0
2018-Feb-19 01:59N 70°40' E 023°40'0 0.0
2018-Feb-19 01:29N 70°40' E 023°40'0 0.0
2018-Feb-19 00:59N 70°40' E 023°40'0 0.0
2018-Feb-19 00:29N 70°40' E 023°40'0 0.0
2018-Feb-18 23:35N 70°40' E 023°40'0 0.0
2018-Feb-18 23:29N 70°40' E 023°40'0 0.0
2018-Feb-18 22:59N 70°40' E 023°40'0 0.0
2018-Feb-18 22:29N 70°40' E 023°40'0 0.0
2018-Feb-18 21:59N 70°40' E 023°40'0 0.0
2018-Feb-18 21:29N 70°40' E 023°40'0 0.0
2018-Feb-18 20:59N 70°40' E 023°40'0 0.0
2018-Feb-18 20:29N 70°40' E 023°40'0 0.0
2018-Feb-18 19:59N 70°40' E 023°40'0 0.1
2018-Feb-18 19:23N 70°40' E 023°40'0 0.3
2018-Feb-18 19:00N 70°40' E 023°40'  
2018-Feb-14 16:29N 70°40' E 023°40'0 0.0
2018-Feb-14 15:59N 70°40' E 023°40'0 0.0
2018-Feb-14 15:29N 70°40' E 023°40'0 0.0
2018-Feb-14 14:59N 70°40' E 023°40'0 0.0
2018-Feb-14 14:29N 70°40' E 023°40'0 0.0
2018-Feb-14 13:59N 70°40' E 023°40'0 0.1
2018-Feb-14 13:26N 70°40' E 023°40'0 0.0
2018-Feb-14 12:56N 70°40' E 023°40'0 0.0
2018-Feb-14 12:29N 70°40' E 023°40'0 0.1
2018-Feb-14 11:56N 70°40' E 023°40'0 0.0
2018-Feb-14 11:26N 70°40' E 023°40'0 0.0
2018-Feb-14 10:50N 70°40' E 023°40'0 0.0
2018-Feb-14 10:26N 70°40' E 023°40'0 0.0
2018-Feb-14 09:56N 70°40' E 023°40'0 0.0
2018-Feb-14 09:26N 70°40' E 023°40'0 0.0
2018-Feb-14 08:56N 70°40' E 023°40'0 0.0
2018-Feb-14 08:26N 70°40' E 023°40'0 0.0
2018-Feb-14 07:56N 70°40' E 023°40'0 0.0
2018-Feb-14 07:26N 70°40' E 023°40'0 0.0
2018-Feb-14 06:56N 70°40' E 023°40'0 0.0
2018-Feb-14 06:26N 70°40' E 023°40'0 0.0
2018-Feb-14 05:56N 70°40' E 023°40'0 0.0
2018-Feb-14 05:26N 70°40' E 023°40'0 0.0
2018-Feb-14 04:50N 70°40' E 023°40'0 0.0
2018-Feb-14 04:26N 70°40' E 023°40'0 0.0
2018-Feb-14 03:56N 70°40' E 023°40'0 0.0
2018-Feb-14 03:26N 70°40' E 023°40'0 0.0
2018-Feb-14 02:56N 70°40' E 023°40'0 0.0
2018-Feb-14 02:26N 70°40' E 023°40'0 0.0
2018-Feb-14 01:56N 70°40' E 023°40'0 0.0
2018-Feb-14 01:20N 70°40' E 023°40'0 0.0
2018-Feb-14 00:56N 70°40' E 023°40'0 0.0
2018-Feb-14 00:26N 70°40' E 023°40'0 0.0
2018-Feb-13 23:50N 70°40' E 023°40'0 0.0
2018-Feb-13 23:26N 70°40' E 023°40'0 0.0
2018-Feb-13 22:56N 70°40' E 023°40'0 0.0
2018-Feb-13 22:26N 70°40' E 023°40'0 0.0
2018-Feb-13 21:56N 70°40' E 023°40'0 0.0
2018-Feb-13 21:26N 70°40' E 023°40'0 0.0
2018-Feb-13 20:56N 70°40' E 023°40'0 0.0
2018-Feb-13 20:26N 70°40' E 023°40'0 0.0
2018-Feb-13 19:50N 70°40' E 023°40'0 0.0
2018-Feb-13 19:26N 70°40' E 023°40'0 0.1
2018-Feb-13 18:59N 70°40' E 023°40'0 0.0
2018-Feb-13 18:29N 70°40' E 023°40'0 0.1
2018-Feb-13 18:00N 70°40' E 023°40'0 0.0
2018-Feb-13 17:30N 70°40' E 023°40'0 0.0
2018-Feb-13 17:00N 70°40' E 023°40'0 0.0
2018-Feb-13 16:30N 70°40' E 023°40'0 0.0
2018-Feb-13 15:54N 70°40' E 023°40'0 0.0
2018-Feb-13 15:30N 70°40' E 023°40'0 0.0
2018-Feb-13 15:00N 70°40' E 023°40'0 0.0
2018-Feb-13 14:24N 70°40' E 023°40'0 0.0
2018-Feb-13 14:00N 70°40' E 023°40'0 0.0
2018-Feb-13 13:30N 70°40' E 023°40'0 0.0
2018-Feb-13 12:54N 70°40' E 023°40'0 0.0
2018-Feb-13 12:27N 70°40' E 023°40'3 6.8
2018-Feb-13 12:00N 70°39' E 023°32'4 0.8
2018-Feb-13 07:07N 70°36' E 023°24'2 7.2
2018-Feb-13 06:50N 70°38' E 023°22'3 9.6
2018-Feb-13 06:30N 70°39' E 023°31'3 6.0
2018-Feb-13 05:58N 70°40' E 023°40'0 0.0
2018-Feb-13 05:28N 70°40' E 023°40'0 0.0
2018-Feb-13 04:58N 70°40' E 023°40'0 0.0
2018-Feb-13 04:28N 70°40' E 023°40'0 0.0
2018-Feb-13 03:58N 70°40' E 023°40'0 0.0
2018-Feb-13 03:28N 70°40' E 023°40'0 0.0
2018-Feb-13 02:58N 70°40' E 023°40'0 0.0
2018-Feb-13 02:22N 70°40' E 023°40'0 0.0
2018-Feb-13 01:58N 70°40' E 023°40'0 0.0
2018-Feb-13 01:28N 70°40' E 023°40'0 0.0
2018-Feb-13 00:58N 70°40' E 023°40'0 0.0
2018-Feb-13 00:28N 70°40' E 023°40'0 0.0
2018-Feb-12 23:58N 70°40' E 023°40'0 0.0
2018-Feb-12 23:28N 70°40' E 023°40'0 0.0
2018-Feb-12 22:58N 70°40' E 023°40'0 0.0
2018-Feb-12 22:28N 70°40' E 023°40'0 0.0
2018-Feb-12 21:58N 70°40' E 023°40'0 0.0
2018-Feb-12 21:28N 70°40' E 023°40'0 0.0
2018-Feb-12 20:58N 70°40' E 023°40'0 0.0
2018-Feb-12 20:16N 70°40' E 023°40'0 0.0
2018-Feb-12 19:58N 70°40' E 023°40'0 0.0
2018-Feb-12 19:28N 70°40' E 023°40'0 0.0
2018-Feb-12 18:58N 70°40' E 023°40'0 0.0
2018-Feb-12 18:28N 70°40' E 023°40'0 0.0
2018-Feb-12 17:57N 70°40' E 023°40'3 5.7
2018-Feb-12 17:30N 70°39' E 023°33'2 0.2
2018-Feb-12 06:52N 70°38' E 023°26'3 7.9
2018-Feb-12 06:30N 70°39' E 023°35'2 4.2
2018-Feb-12 06:00N 70°40' E 023°40'0 0.0
2018-Feb-12 05:24N 70°40' E 023°40'0 0.0
2018-Feb-12 05:00N 70°40' E 023°40'0 0.0
2018-Feb-12 04:30N 70°40' E 023°40'0 0.0
2018-Feb-12 04:00N 70°40' E 023°40'0 0.0
2018-Feb-12 03:30N 70°40' E 023°40'0 0.0
2018-Feb-12 03:00N 70°40' E 023°40'0 0.0
2018-Feb-12 02:30N 70°40' E 023°40'0 0.0
2018-Feb-12 02:00N 70°40' E 023°40'0 0.0
2018-Feb-12 01:30N 70°40' E 023°40'0 0.0
2018-Feb-12 01:00N 70°40' E 023°40'0 0.0
2018-Feb-12 00:30N 70°40' E 023°40'0 0.0
2018-Feb-12 00:00N 70°40' E 023°40'0 0.0
2018-Feb-11 23:30N 70°40' E 023°40'0 0.0
2018-Feb-11 22:54N 70°40' E 023°40'0 0.0
2018-Feb-11 22:30N 70°40' E 023°40'0 0.0
2018-Feb-11 22:00N 70°40' E 023°40'0 0.0
2018-Feb-11 21:24N 70°40' E 023°40'0 0.0
2018-Feb-11 21:00N 70°40' E 023°40'0 0.0
2018-Feb-11 20:30N 70°40' E 023°40'0 0.0
2018-Feb-11 20:00N 70°40' E 023°40'0 0.0
2018-Feb-11 19:30N 70°40' E 023°40'7 0.6
2018-Feb-11 07:41N 70°36' E 023°23'2 5.6
2018-Feb-11 07:14N 70°38' E 023°26'2 8.7
2018-Feb-11 06:58N 70°38' E 023°33'  
Track history (hours):
 
Tides and Currents Weather Stations Pressure Air Temp Water Temp Dewpoint Dewpoint Depression Visibility Wind Speed Wind Dir Waves Ship Positions

Aqs Eyr

Last reported at 2018-Feb-21 06:41 UTC. Time now 2018-Feb-21 09:42 UTC.
Position N 70°34' E 023°38'.

Length 15 m.

MMSI: 257586800.

Date/timePositionNaut miles runAvg speedWind from/ knotsBaromVisibWave heightAir tempDewpointWater temp
2018-Feb-21 06:41N 70°34' E 023°38'2 8.4
2018-Feb-21 06:28N 70°36' E 023°35'3 0.2
2018-Feb-20 16:16N 70°38' E 023°37'1 3.3
2018-Feb-20 15:57N 70°38' E 023°34'2 3.9
2018-Feb-20 15:24N 70°36' E 023°34'1 0.1
2018-Feb-20 06:41N 70°36' E 023°35'2 8.7
2018-Feb-20 06:30N 70°38' E 023°36'3 4.8
2018-Feb-20 05:56N 70°40' E 023°41'0 0.0
2018-Feb-20 05:26N 70°40' E 023°41'0 0.0
2018-Feb-20 04:56N 70°40' E 023°41'0 0.0
2018-Feb-20 04:26N 70°40' E 023°41'0 0.0
2018-Feb-20 03:56N 70°40' E 023°41'0 0.0
2018-Feb-20 03:26N 70°40' E 023°41'0 0.0
2018-Feb-20 02:56N 70°40' E 023°41'0 0.0
2018-Feb-20 02:26N 70°40' E 023°41'0 0.0
2018-Feb-20 01:56N 70°40' E 023°41'0 0.0
2018-Feb-20 01:26N 70°40' E 023°41'0 0.0
2018-Feb-20 00:56N 70°40' E 023°41'0 0.0
2018-Feb-20 00:27N 70°40' E 023°41'0 0.0
2018-Feb-19 23:56N 70°40' E 023°41'0 0.0
2018-Feb-19 23:26N 70°40' E 023°41'0 0.0
2018-Feb-19 22:56N 70°40' E 023°41'0 0.0
2018-Feb-19 22:26N 70°40' E 023°41'0 0.0
2018-Feb-19 21:56N 70°40' E 023°41'0 0.0
2018-Feb-19 21:20N 70°40' E 023°41'0 0.0
2018-Feb-19 20:56N 70°40' E 023°41'0 0.0
2018-Feb-19 20:26N 70°40' E 023°41'0 0.0
2018-Feb-19 19:56N 70°40' E 023°41'0 0.0
2018-Feb-19 19:27N 70°40' E 023°41'0 0.0
2018-Feb-19 18:56N 70°40' E 023°41'0 0.0
2018-Feb-19 18:26N 70°40' E 023°41'0 0.0
2018-Feb-19 17:56N 70°40' E 023°41'0 0.0
2018-Feb-19 17:21N 70°40' E 023°41'1 2.7
2018-Feb-19 17:00N 70°40' E 023°38'2 2.5
2018-Feb-19 16:10N 70°38' E 023°36'1 0.1
2018-Feb-19 07:14N 70°37' E 023°36'2 6.6
2018-Feb-19 07:00N 70°38' E 023°38'1 1.5
2018-Feb-19 06:30N 70°39' E 023°37'2 3.3
2018-Feb-19 05:59N 70°40' E 023°40'0 0.0
2018-Feb-19 05:29N 70°40' E 023°40'0 0.0
2018-Feb-19 04:59N 70°40' E 023°40'0 0.0
2018-Feb-19 04:29N 70°40' E 023°40'0 0.0
2018-Feb-19 03:59N 70°40' E 023°40'0 0.0
2018-Feb-19 03:29N 70°40' E 023°40'0 0.0
2018-Feb-19 02:59N 70°40' E 023°40'0 0.0
2018-Feb-19 02:29N 70°40' E 023°40'0 0.0
2018-Feb-19 01:59N 70°40' E 023°40'0 0.0
2018-Feb-19 01:29N 70°40' E 023°40'0 0.0
2018-Feb-19 00:59N 70°40' E 023°40'0 0.0
2018-Feb-19 00:29N 70°40' E 023°40'0 0.0
2018-Feb-18 23:35N 70°40' E 023°40'0 0.0
2018-Feb-18 23:29N 70°40' E 023°40'0 0.0
2018-Feb-18 22:59N 70°40' E 023°40'0 0.0
2018-Feb-18 22:29N 70°40' E 023°40'0 0.0
2018-Feb-18 21:59N 70°40' E 023°40'0 0.0
2018-Feb-18 21:29N 70°40' E 023°40'0 0.0
2018-Feb-18 20:59N 70°40' E 023°40'0 0.0
2018-Feb-18 20:29N 70°40' E 023°40'0 0.0
2018-Feb-18 19:59N 70°40' E 023°40'0 0.1
2018-Feb-18 19:23N 70°40' E 023°40'0 0.3
2018-Feb-18 19:00N 70°40' E 023°40'  
2018-Feb-14 16:29N 70°40' E 023°40'0 0.0
2018-Feb-14 15:59N 70°40' E 023°40'0 0.0
2018-Feb-14 15:29N 70°40' E 023°40'0 0.0
2018-Feb-14 14:59N 70°40' E 023°40'0 0.0
2018-Feb-14 14:29N 70°40' E 023°40'0 0.0
2018-Feb-14 13:59N 70°40' E 023°40'0 0.1
2018-Feb-14 13:26N 70°40' E 023°40'0 0.0
2018-Feb-14 12:56N 70°40' E 023°40'0 0.0
2018-Feb-14 12:29N 70°40' E 023°40'0 0.1
2018-Feb-14 11:56N 70°40' E 023°40'0 0.0
2018-Feb-14 11:26N 70°40' E 023°40'0 0.0
2018-Feb-14 10:50N 70°40' E 023°40'0 0.0
2018-Feb-14 10:26N 70°40' E 023°40'0 0.0
2018-Feb-14 09:56N 70°40' E 023°40'0 0.0
2018-Feb-14 09:26N 70°40' E 023°40'0 0.0
2018-Feb-14 08:56N 70°40' E 023°40'0 0.0
2018-Feb-14 08:26N 70°40' E 023°40'0 0.0
2018-Feb-14 07:56N 70°40' E 023°40'0 0.0
2018-Feb-14 07:26N 70°40' E 023°40'0 0.0
2018-Feb-14 06:56N 70°40' E 023°40'0 0.0
2018-Feb-14 06:26N 70°40' E 023°40'0 0.0
2018-Feb-14 05:56N 70°40' E 023°40'0 0.0
2018-Feb-14 05:26N 70°40' E 023°40'0 0.0
2018-Feb-14 04:50N 70°40' E 023°40'0 0.0
2018-Feb-14 04:26N 70°40' E 023°40'0 0.0
2018-Feb-14 03:56N 70°40' E 023°40'0 0.0
2018-Feb-14 03:26N 70°40' E 023°40'0 0.0
2018-Feb-14 02:56N 70°40' E 023°40'0 0.0
2018-Feb-14 02:26N 70°40' E 023°40'0 0.0
2018-Feb-14 01:56N 70°40' E 023°40'0 0.0
2018-Feb-14 01:20N 70°40' E 023°40'0 0.0
2018-Feb-14 00:56N 70°40' E 023°40'0 0.0
2018-Feb-14 00:26N 70°40' E 023°40'0 0.0
2018-Feb-13 23:50N 70°40' E 023°40'0 0.0
2018-Feb-13 23:26N 70°40' E 023°40'0 0.0
2018-Feb-13 22:56N 70°40' E 023°40'0 0.0
2018-Feb-13 22:26N 70°40' E 023°40'0 0.0
2018-Feb-13 21:56N 70°40' E 023°40'0 0.0
2018-Feb-13 21:26N 70°40' E 023°40'0 0.0
2018-Feb-13 20:56N 70°40' E 023°40'0 0.0
2018-Feb-13 20:26N 70°40' E 023°40'0 0.0
2018-Feb-13 19:50N 70°40' E 023°40'0 0.0
2018-Feb-13 19:26N 70°40' E 023°40'0 0.1
2018-Feb-13 18:59N 70°40' E 023°40'0 0.0
2018-Feb-13 18:29N 70°40' E 023°40'0 0.1
2018-Feb-13 18:00N 70°40' E 023°40'0 0.0
2018-Feb-13 17:30N 70°40' E 023°40'0 0.0
2018-Feb-13 17:00N 70°40' E 023°40'0 0.0
2018-Feb-13 16:30N 70°40' E 023°40'0 0.0
2018-Feb-13 15:54N 70°40' E 023°40'0 0.0
2018-Feb-13 15:30N 70°40' E 023°40'0 0.0
2018-Feb-13 15:00N 70°40' E 023°40'0 0.0
2018-Feb-13 14:24N 70°40' E 023°40'0 0.0
2018-Feb-13 14:00N 70°40' E 023°40'0 0.0
2018-Feb-13 13:30N 70°40' E 023°40'0 0.0
2018-Feb-13 12:54N 70°40' E 023°40'0 0.0
2018-Feb-13 12:27N 70°40' E 023°40'3 6.8
2018-Feb-13 12:00N 70°39' E 023°32'4 0.8
2018-Feb-13 07:07N 70°36' E 023°24'2 7.2
2018-Feb-13 06:50N 70°38' E 023°22'3 9.6
2018-Feb-13 06:30N 70°39' E 023°31'3 6.0
2018-Feb-13 05:58N 70°40' E 023°40'0 0.0
2018-Feb-13 05:28N 70°40' E 023°40'0 0.0
2018-Feb-13 04:58N 70°40' E 023°40'0 0.0
2018-Feb-13 04:28N 70°40' E 023°40'0 0.0
2018-Feb-13 03:58N 70°40' E 023°40'0 0.0
2018-Feb-13 03:28N 70°40' E 023°40'0 0.0
2018-Feb-13 02:58N 70°40' E 023°40'0 0.0
2018-Feb-13 02:22N 70°40' E 023°40'0 0.0
2018-Feb-13 01:58N 70°40' E 023°40'0 0.0
2018-Feb-13 01:28N 70°40' E 023°40'0 0.0
2018-Feb-13 00:58N 70°40' E 023°40'0 0.0
2018-Feb-13 00:28N 70°40' E 023°40'0 0.0
2018-Feb-12 23:58N 70°40' E 023°40'0 0.0
2018-Feb-12 23:28N 70°40' E 023°40'0 0.0
2018-Feb-12 22:58N 70°40' E 023°40'0 0.0
2018-Feb-12 22:28N 70°40' E 023°40'0 0.0
2018-Feb-12 21:58N 70°40' E 023°40'0 0.0
2018-Feb-12 21:28N 70°40' E 023°40'0 0.0
2018-Feb-12 20:58N 70°40' E 023°40'0 0.0
2018-Feb-12 20:16N 70°40' E 023°40'0 0.0
2018-Feb-12 19:58N 70°40' E 023°40'0 0.0
2018-Feb-12 19:28N 70°40' E 023°40'0 0.0
2018-Feb-12 18:58N 70°40' E 023°40'0 0.0
2018-Feb-12 18:28N 70°40' E 023°40'0 0.0
2018-Feb-12 17:57N 70°40' E 023°40'3 5.7
2018-Feb-12 17:30N 70°39' E 023°33'2 0.2
2018-Feb-12 06:52N 70°38' E 023°26'3 7.9
2018-Feb-12 06:30N 70°39' E 023°35'2 4.2
2018-Feb-12 06:00N 70°40' E 023°40'0 0.0
2018-Feb-12 05:24N 70°40' E 023°40'0 0.0
2018-Feb-12 05:00N 70°40' E 023°40'0 0.0
2018-Feb-12 04:30N 70°40' E 023°40'0 0.0
2018-Feb-12 04:00N 70°40' E 023°40'0 0.0
2018-Feb-12 03:30N 70°40' E 023°40'0 0.0
2018-Feb-12 03:00N 70°40' E 023°40'0 0.0
2018-Feb-12 02:30N 70°40' E 023°40'0 0.0
2018-Feb-12 02:00N 70°40' E 023°40'0 0.0
2018-Feb-12 01:30N 70°40' E 023°40'0 0.0
2018-Feb-12 01:00N 70°40' E 023°40'0 0.0
2018-Feb-12 00:30N 70°40' E 023°40'0 0.0
2018-Feb-12 00:00N 70°40' E 023°40'0 0.0
2018-Feb-11 23:30N 70°40' E 023°40'0 0.0
2018-Feb-11 22:54N 70°40' E 023°40'0 0.0
2018-Feb-11 22:30N 70°40' E 023°40'0 0.0
2018-Feb-11 22:00N 70°40' E 023°40'0 0.0
2018-Feb-11 21:24N 70°40' E 023°40'0 0.0
2018-Feb-11 21:00N 70°40' E 023°40'0 0.0
2018-Feb-11 20:30N 70°40' E 023°40'0 0.0
2018-Feb-11 20:00N 70°40' E 023°40'0 0.0
2018-Feb-11 19:30N 70°40' E 023°40'7 0.6
2018-Feb-11 07:41N 70°36' E 023°23'2 5.6
2018-Feb-11 07:14N 70°38' E 023°26'2 8.7
2018-Feb-11 06:58N 70°38' E 023°33'  

Dump ship's entire track history